createdAt,value
2022-08-16T00:00:22.098Z,83.01
2022-08-16T00:01:54.711Z,83.14
2022-08-16T00:03:27.767Z,82.93
2022-08-16T00:05:02.343Z,82.51
2022-08-16T00:06:36.599Z,82.50
2022-08-16T00:08:11.548Z,82.43
2022-08-16T00:10:05.763Z,82.45
2022-08-16T00:11:42.795Z,82.46
2022-08-16T00:13:14.777Z,82.80
2022-08-16T00:14:49.837Z,82.96
2022-08-16T00:17:01.221Z,83.05
2022-08-16T00:18:18.280Z,82.81
2022-08-16T00:19:56.272Z,83.08
2022-08-16T00:21:29.066Z,83.03
2022-08-16T00:23:01.250Z,83.36
2022-08-16T00:24:34.664Z,83.27
2022-08-16T00:26:35.846Z,83.21
2022-08-16T00:27:58.963Z,83.16
2022-08-16T00:29:31.735Z,83.28
2022-08-16T00:31:04.981Z,83.45
2022-08-16T00:32:42.582Z,83.59
2022-08-16T00:34:18.250Z,83.60
2022-08-16T00:35:50.687Z,83.89
2022-08-16T00:37:56.177Z,83.26
2022-08-16T00:39:19.436Z,83.08
2022-08-16T00:40:54.328Z,82.77
2022-08-16T00:42:29.543Z,82.93
2022-08-16T00:44:11.005Z,82.92
2022-08-16T00:45:58.498Z,82.90
2022-08-16T00:47:33.012Z,82.98
2022-08-16T00:49:17.594Z,83.40
2022-08-16T00:50:55.469Z,83.07
2022-08-16T00:52:29.631Z,83.15
2022-08-16T00:54:03.079Z,83.49
2022-08-16T00:55:38.315Z,83.16
2022-08-16T00:57:11.543Z,83.22
2022-08-16T00:58:44.670Z,83.34
2022-08-16T01:00:19.937Z,83.45
2022-08-16T01:01:52.924Z,83.40
2022-08-16T01:03:29.464Z,83.26
2022-08-16T01:05:09.308Z,83.48
2022-08-16T01:07:01.404Z,83.34
2022-08-16T01:08:36.926Z,83.50
2022-08-16T01:10:16.027Z,83.51
2022-08-16T01:11:51.779Z,83.50
2022-08-16T01:13:30.939Z,83.36
2022-08-16T01:15:03.436Z,83.05
2022-08-16T01:16:36.101Z,83.18
2022-08-16T01:18:39.950Z,83.43
2022-08-16T01:20:24.447Z,83.11
2022-08-16T01:22:49.641Z,83.25
2022-08-16T01:24:53.678Z,83.31
2022-08-16T01:26:34.146Z,83.45
2022-08-16T01:28:19.945Z,83.45
2022-08-16T01:30:19.499Z,83.45
2022-08-16T01:31:52.800Z,83.71
2022-08-16T01:33:33.286Z,83.38
2022-08-16T01:35:09.423Z,83.57
2022-08-16T01:36:58.255Z,83.78
2022-08-16T01:38:32.044Z,83.83
2022-08-16T01:40:07.099Z,83.96
2022-08-16T01:41:42.321Z,83.63
2022-08-16T01:43:16.632Z,83.41
2022-08-16T01:44:48.728Z,83.50
2022-08-16T01:46:39.267Z,83.46
2022-08-16T01:48:20.438Z,83.36
2022-08-16T01:50:42.576Z,83.28
2022-08-16T01:51:47.562Z,83.63
2022-08-16T01:53:20.074Z,83.56
2022-08-16T01:54:53.476Z,83.57
2022-08-16T01:56:25.856Z,83.62
2022-08-16T01:57:58.835Z,83.57
2022-08-16T01:59:32.694Z,83.58
2022-08-16T02:01:04.902Z,83.62
2022-08-16T02:02:42.661Z,83.58
2022-08-16T02:04:14.920Z,83.53
2022-08-16T02:06:08.156Z,83.50
2022-08-16T02:07:40.061Z,83.19
2022-08-16T02:09:17.914Z,83.38
2022-08-16T02:10:50.232Z,83.75
2022-08-16T02:12:40.156Z,83.46
2022-08-16T02:14:18.056Z,83.44
2022-08-16T02:15:50.588Z,83.45
2022-08-16T02:17:24.793Z,83.79
2022-08-16T02:19:01.030Z,83.91
2022-08-16T02:20:35.156Z,83.80
2022-08-16T02:22:33.767Z,83.36
2022-08-16T02:24:00.159Z,83.54
2022-08-16T02:25:50.572Z,83.28
2022-08-16T02:27:24.830Z,83.57
2022-08-16T02:28:57.391Z,83.79
2022-08-16T02:30:37.172Z,83.78
2022-08-16T02:32:51.266Z,84.05
2022-08-16T02:34:10.151Z,84.05
2022-08-16T02:35:49.789Z,84.52
2022-08-16T02:37:52.123Z,84.65
2022-08-16T02:39:22.470Z,84.48
2022-08-16T02:40:57.305Z,84.30
2022-08-16T02:42:31.095Z,84.50
2022-08-16T02:44:04.156Z,84.77
2022-08-16T02:45:36.331Z,84.74
2022-08-16T02:47:08.372Z,84.91
2022-08-16T02:48:49.146Z,84.82
2022-08-16T02:50:53.830Z,84.57
2022-08-16T02:52:17.332Z,84.15
2022-08-16T02:53:57.137Z,84.36
2022-08-16T02:55:40.843Z,84.58
2022-08-16T02:57:13.660Z,84.57
2022-08-16T02:58:47.660Z,84.58
2022-08-16T03:00:33.677Z,84.43
2022-08-16T03:02:08.866Z,84.08
2022-08-16T03:04:48.839Z,84.00
2022-08-16T03:05:33.982Z,83.93
2022-08-16T03:07:06.668Z,84.27
2022-08-16T03:08:50.652Z,84.32
2022-08-16T03:10:23.799Z,84.49
2022-08-16T03:13:40.379Z,84.56
2022-08-16T03:15:13.893Z,84.39
2022-08-16T03:16:59.436Z,84.76
2022-08-16T03:18:34.444Z,84.40
2022-08-16T03:20:15.499Z,84.35
2022-08-16T03:21:51.828Z,84.49
2022-08-16T03:23:24.040Z,84.57
2022-08-16T03:25:00.802Z,84.78
2022-08-16T03:26:33.557Z,84.83
2022-08-16T03:28:09.768Z,84.79
2022-08-16T03:29:54.159Z,84.88
2022-08-16T03:31:34.858Z,84.92
2022-08-16T03:33:12.853Z,85.25
2022-08-16T03:34:49.988Z,85.22
2022-08-16T03:36:30.834Z,85.41
2022-08-16T03:38:33.444Z,85.31
2022-08-16T03:40:02.827Z,85.43
2022-08-16T03:41:50.686Z,85.42
2022-08-16T03:43:24.642Z,85.45
2022-08-16T03:45:16.933Z,85.19
2022-08-16T03:46:50.194Z,85.32
2022-08-16T03:48:36.887Z,85.06
2022-08-16T03:50:26.146Z,85.03
2022-08-16T03:51:59.029Z,84.96
2022-08-16T03:53:37.861Z,85.25
2022-08-16T03:55:14.659Z,85.33
2022-08-16T03:56:56.694Z,85.43
2022-08-16T03:58:30.439Z,85.42
2022-08-16T04:00:20.421Z,85.29
2022-08-16T04:02:12.133Z,85.23
2022-08-16T04:03:55.599Z,85.25
2022-08-16T04:05:28.028Z,85.25
2022-08-16T04:07:05.800Z,85.65
2022-08-16T04:08:39.659Z,85.28
2022-08-16T04:10:36.282Z,85.54
2022-08-16T04:12:10.813Z,85.79
2022-08-16T04:14:01.719Z,86.05
2022-08-16T04:15:35.179Z,86.02
2022-08-16T04:17:07.287Z,85.79
2022-08-16T04:18:39.496Z,85.85
2022-08-16T04:20:31.222Z,85.60
2022-08-16T04:22:08.580Z,85.71
2022-08-16T04:23:41.790Z,85.89
2022-08-16T04:25:14.196Z,85.55
2022-08-16T04:26:46.810Z,85.47
2022-08-16T04:28:51.729Z,85.72
2022-08-16T04:30:32.136Z,85.81
2022-08-16T04:32:08.136Z,85.51
2022-08-16T04:33:51.222Z,85.66
2022-08-16T04:35:24.328Z,86.26
2022-08-16T04:37:01.482Z,85.58
2022-08-16T04:38:34.705Z,85.67
2022-08-16T04:40:11.056Z,85.59
2022-08-16T04:41:56.814Z,84.90
2022-08-16T04:43:29.529Z,85.86
2022-08-16T04:45:01.758Z,85.75
2022-08-16T04:47:02.658Z,85.80
2022-08-16T04:48:34.025Z,86.14
2022-08-16T04:50:14.487Z,85.89
2022-08-16T04:51:53.958Z,86.18
2022-08-16T04:53:29.193Z,85.79
2022-08-16T04:55:01.597Z,85.74
2022-08-16T04:56:46.359Z,85.65
2022-08-16T04:58:44.976Z,85.35
2022-08-16T05:00:32.136Z,84.58
2022-08-16T05:02:41.477Z,84.92
2022-08-16T05:04:01.031Z,84.25
2022-08-16T05:05:36.824Z,83.16
2022-08-16T05:07:20.471Z,83.39
2022-08-16T05:08:53.027Z,82.90
2022-08-16T05:10:30.179Z,83.50
2022-08-16T05:12:02.356Z,84.19
2022-08-16T05:13:40.538Z,84.52
2022-08-16T05:15:13.449Z,85.10
2022-08-16T05:16:45.599Z,85.05
2022-08-16T05:18:21.983Z,84.85
2022-08-16T05:19:59.774Z,84.64
2022-08-16T05:21:38.327Z,84.75
2022-08-16T05:23:15.101Z,83.89
2022-08-16T05:24:47.751Z,83.70
2022-08-16T05:27:59.788Z,83.82
2022-08-16T05:30:00.718Z,84.40
2022-08-16T05:31:30.313Z,84.06
2022-08-16T05:33:02.756Z,83.66
2022-08-16T05:34:36.755Z,83.63
2022-08-16T05:36:14.515Z,83.03
2022-08-16T05:37:46.770Z,81.84
2022-08-16T05:41:02.474Z,82.24
2022-08-16T05:42:35.854Z,83.17
2022-08-16T05:44:22.385Z,83.25
2022-08-16T05:45:58.620Z,83.63
2022-08-16T05:47:31.497Z,83.66
2022-08-16T05:49:08.521Z,84.57
2022-08-16T05:50:41.745Z,84.22
2022-08-16T05:52:17.310Z,84.87
2022-08-16T05:53:53.169Z,84.74
2022-08-16T05:55:27.102Z,84.83
2022-08-16T05:57:02.290Z,84.62
2022-08-16T05:58:35.865Z,84.99
2022-08-16T06:00:11.071Z,85.02
2022-08-16T06:01:45.224Z,84.99
2022-08-16T06:03:17.607Z,85.56
2022-08-16T06:04:50.065Z,85.13
2022-08-16T06:06:29.049Z,84.64
2022-08-16T06:08:01.215Z,84.12
2022-08-16T06:09:37.171Z,82.96
2022-08-16T06:11:16.715Z,82.42
2022-08-16T06:12:55.871Z,82.34
2022-08-16T06:14:30.156Z,82.44
2022-08-16T06:16:07.364Z,82.19
2022-08-16T06:17:42.508Z,82.33
2022-08-16T06:19:16.123Z,82.90
2022-08-16T06:20:51.966Z,82.69
2022-08-16T06:22:57.846Z,82.50
2022-08-16T06:24:54.376Z,82.76
2022-08-16T06:26:12.955Z,83.38
2022-08-16T06:27:57.625Z,83.29
2022-08-16T06:29:30.666Z,82.43
2022-08-16T06:31:03.456Z,81.62
2022-08-16T06:32:42.990Z,81.13
2022-08-16T06:34:54.217Z,81.13
2022-08-16T06:36:09.505Z,80.69
2022-08-16T06:37:45.772Z,80.06
2022-08-16T06:39:23.910Z,78.32
2022-08-16T06:40:56.577Z,77.92
2022-08-16T06:42:47.150Z,78.08
2022-08-16T06:44:21.006Z,77.56
2022-08-16T06:45:54.581Z,76.99
2022-08-16T06:47:52.355Z,76.67
2022-08-16T06:49:19.650Z,77.09
2022-08-16T06:50:52.775Z,76.72
2022-08-16T06:52:59.642Z,76.83
2022-08-16T06:54:19.235Z,76.64
2022-08-16T06:55:53.859Z,75.95
2022-08-16T06:57:26.534Z,75.34
2022-08-16T06:58:59.494Z,74.53
2022-08-16T07:00:33.506Z,73.28
2022-08-16T07:02:06.097Z,73.24
2022-08-16T07:03:58.426Z,73.93
2022-08-16T07:05:41.642Z,73.82
2022-08-16T07:07:14.417Z,73.28
2022-08-16T07:08:48.179Z,72.94
2022-08-16T07:10:26.801Z,72.94
2022-08-16T07:12:03.457Z,73.56
2022-08-16T07:14:00.610Z,72.23
2022-08-16T07:15:30.731Z,71.71
2022-08-16T07:17:07.920Z,72.18
2022-08-16T07:19:00.877Z,70.07
2022-08-16T07:20:47.043Z,70.60
2022-08-16T07:22:37.156Z,65.92
2022-08-16T07:24:11.975Z,63.75
2022-08-16T07:26:02.353Z,65.09
2022-08-16T07:27:37.350Z,66.03
2022-08-16T07:29:09.959Z,67.08
2022-08-16T07:30:46.875Z,66.01
2022-08-16T07:32:29.664Z,66.57
2022-08-16T07:34:03.860Z,64.71
2022-08-16T07:35:44.265Z,64.91
2022-08-16T07:37:17.422Z,64.70
2022-08-16T07:38:50.266Z,63.03
2022-08-16T07:40:49.018Z,63.61
2022-08-16T07:42:26.108Z,62.57
2022-08-16T07:44:00.928Z,62.24
2022-08-16T07:45:34.059Z,62.67
2022-08-16T07:47:06.870Z,61.68
2022-08-16T07:48:38.997Z,59.50
2022-08-16T07:50:56.829Z,60.20
2022-08-16T07:52:18.630Z,59.93
2022-08-16T07:54:02.578Z,57.11
2022-08-16T07:55:47.562Z,56.22
2022-08-16T07:57:20.475Z,58.13
2022-08-16T07:58:57.910Z,57.37
2022-08-16T08:00:31.331Z,56.24
2022-08-16T08:02:04.875Z,56.33
2022-08-16T08:03:48.765Z,52.06
2022-08-16T08:05:25.345Z,51.96
2022-08-16T08:07:08.947Z,53.13
2022-08-16T08:08:50.168Z,52.02
2022-08-16T08:10:29.732Z,51.82
2022-08-16T08:12:05.557Z,49.14
2022-08-16T08:13:42.598Z,46.68
2022-08-16T08:15:15.732Z,45.61
2022-08-16T08:16:57.838Z,47.97
2022-08-16T08:18:33.839Z,48.40
2022-08-16T08:20:08.771Z,46.22
2022-08-16T08:22:00.190Z,43.74
2022-08-16T08:23:37.088Z,44.64
2022-08-16T08:25:16.299Z,46.11
2022-08-16T08:26:50.051Z,46.96
2022-08-16T08:28:22.909Z,47.20
2022-08-16T08:30:50.267Z,45.16
2022-08-16T08:31:52.922Z,44.92
2022-08-16T08:33:25.332Z,42.78
2022-08-16T08:35:03.875Z,44.25
2022-08-16T08:36:40.019Z,44.55
2022-08-16T08:38:12.688Z,44.58
2022-08-16T08:39:55.307Z,46.09
2022-08-16T08:41:30.587Z,46.26
2022-08-16T08:43:12.674Z,46.10
2022-08-16T08:44:50.681Z,44.66
2022-08-16T08:46:24.448Z,45.45
2022-08-16T08:47:58.552Z,45.81
2022-08-16T08:49:46.099Z,44.88
2022-08-16T08:51:23.812Z,42.73
2022-08-16T08:53:01.658Z,43.08
2022-08-16T08:54:35.010Z,42.87
2022-08-16T08:56:22.863Z,41.49
2022-08-16T08:57:57.644Z,39.60
2022-08-16T08:59:30.803Z,40.19
2022-08-16T09:01:05.523Z,41.49
2022-08-16T09:02:51.691Z,36.82
2022-08-16T09:04:25.165Z,37.38
2022-08-16T09:05:57.610Z,38.80
2022-08-16T09:07:29.888Z,37.01
2022-08-16T09:09:06.217Z,37.42
2022-08-16T09:10:39.510Z,37.11
2022-08-16T09:12:30.162Z,37.81
2022-08-16T09:14:06.185Z,37.50
2022-08-16T09:15:39.118Z,37.83
2022-08-16T09:17:31.604Z,38.94
2022-08-16T09:19:32.966Z,39.41
2022-08-16T09:21:09.565Z,38.18
2022-08-16T09:22:42.669Z,39.04
2022-08-16T09:24:46.941Z,38.08
2022-08-16T09:26:45.714Z,39.13
2022-08-16T09:28:08.917Z,38.78
2022-08-16T09:29:44.926Z,36.41
2022-08-16T09:31:19.417Z,36.82
2022-08-16T09:32:55.297Z,38.08
2022-08-16T09:34:28.008Z,38.07
2022-08-16T09:36:01.295Z,37.85
2022-08-16T09:37:36.475Z,34.50
2022-08-16T09:39:09.776Z,33.48
2022-08-16T09:40:49.047Z,33.36
2022-08-16T09:42:21.270Z,33.69
2022-08-16T09:44:00.251Z,34.26
2022-08-16T09:45:40.408Z,33.46
2022-08-16T09:47:16.194Z,32.76
2022-08-16T09:48:56.703Z,33.34
2022-08-16T09:50:36.755Z,35.74
2022-08-16T09:52:11.834Z,35.83
2022-08-16T09:53:44.483Z,35.36
2022-08-16T09:55:26.040Z,35.60
2022-08-16T09:57:04.218Z,34.79
2022-08-16T09:58:41.956Z,32.46
2022-08-16T10:00:44.145Z,31.71
2022-08-16T10:02:27.565Z,33.38
2022-08-16T10:04:02.112Z,34.23
2022-08-16T10:05:37.714Z,33.56
2022-08-16T10:07:14.715Z,32.50
2022-08-16T10:09:04.652Z,33.04
2022-08-16T10:10:41.797Z,33.02
2022-08-16T10:12:33.376Z,34.10
2022-08-16T10:14:06.116Z,33.82
2022-08-16T10:15:40.417Z,32.78
2022-08-16T10:17:14.652Z,33.01
2022-08-16T10:19:01.732Z,33.60
2022-08-16T10:20:46.270Z,31.37
2022-08-16T10:22:23.110Z,32.57
2022-08-16T10:23:56.244Z,35.45
2022-08-16T10:27:20.711Z,33.38
2022-08-16T10:27:29.788Z,31.24
2022-08-16T10:29:20.177Z,31.78
2022-08-16T10:30:56.346Z,32.24
2022-08-16T10:32:32.425Z,32.87
2022-08-16T10:34:05.301Z,31.51
2022-08-16T10:36:03.094Z,31.97
2022-08-16T10:37:36.664Z,31.45
2022-08-16T10:39:09.141Z,31.11
2022-08-16T10:40:45.516Z,30.25
2022-08-16T10:42:18.542Z,31.10
2022-08-16T10:43:53.198Z,30.09
2022-08-16T10:45:27.284Z,31.12
2022-08-16T10:46:59.707Z,32.21
2022-08-16T10:48:34.658Z,32.14
2022-08-16T10:50:18.993Z,31.39
2022-08-16T10:52:03.186Z,30.17
2022-08-16T10:53:51.495Z,28.84
2022-08-16T10:55:40.756Z,29.70
2022-08-16T10:57:17.013Z,32.65
2022-08-16T10:58:49.600Z,32.38
2022-08-16T11:00:22.707Z,34.59
2022-08-16T11:03:48.606Z,32.15
2022-08-16T11:05:27.239Z,34.40
2022-08-16T11:07:07.971Z,30.90
2022-08-16T11:08:44.957Z,28.67
2022-08-16T11:11:01.890Z,28.35
2022-08-16T11:12:14.766Z,29.31
2022-08-16T11:14:11.440Z,29.15
2022-08-16T11:15:47.933Z,29.42
2022-08-16T11:17:28.852Z,30.80
2022-08-16T11:19:13.115Z,28.96
2022-08-16T11:20:48.949Z,30.42
2022-08-16T11:22:38.719Z,30.57
2022-08-16T11:24:41.256Z,28.35
2022-08-16T11:26:22.800Z,28.50
2022-08-16T11:27:57.392Z,27.98
2022-08-16T11:29:30.040Z,28.34
2022-08-16T11:31:03.126Z,30.88
2022-08-16T11:32:36.880Z,27.99
2022-08-16T11:34:12.496Z,29.57
2022-08-16T11:36:22.508Z,29.08
2022-08-16T11:39:31.887Z,31.19
2022-08-16T11:41:07.428Z,31.20
2022-08-16T11:42:39.756Z,30.85
2022-08-16T11:44:13.600Z,28.71
2022-08-16T11:45:54.476Z,30.84
2022-08-16T11:47:29.056Z,30.01
2022-08-16T11:49:02.638Z,30.17
2022-08-16T11:50:36.001Z,30.52
2022-08-16T11:52:08.396Z,28.81
2022-08-16T11:53:41.116Z,28.86
2022-08-16T11:55:13.662Z,27.34
2022-08-16T11:56:52.971Z,27.48
2022-08-16T11:58:32.007Z,27.31
2022-08-16T12:00:43.531Z,28.68
2022-08-16T12:02:32.441Z,27.88
2022-08-16T12:04:01.155Z,26.54
2022-08-16T12:05:34.236Z,28.83
2022-08-16T12:07:29.665Z,29.29
2022-08-16T12:09:06.838Z,30.03
2022-08-16T12:10:47.296Z,29.46
2022-08-16T12:12:19.596Z,31.32
2022-08-16T12:13:53.992Z,30.32
2022-08-16T12:15:30.978Z,32.43
2022-08-16T12:17:05.326Z,32.07
2022-08-16T12:18:38.441Z,29.69
2022-08-16T12:20:18.910Z,29.41
2022-08-16T12:21:59.157Z,30.10
2022-08-16T12:23:32.077Z,29.81
2022-08-16T12:25:10.966Z,30.84
2022-08-16T12:26:43.516Z,30.32
2022-08-16T12:28:17.274Z,28.09
2022-08-16T12:30:21.370Z,29.69
2022-08-16T12:32:26.531Z,27.97
2022-08-16T12:33:54.372Z,27.82
2022-08-16T12:35:31.992Z,28.25
2022-08-16T12:37:11.499Z,28.82
2022-08-16T12:38:48.314Z,29.98
2022-08-16T12:40:25.347Z,29.78
2022-08-16T12:42:01.912Z,28.65
2022-08-16T12:43:34.467Z,28.89
2022-08-16T12:45:11.101Z,28.07
2022-08-16T12:46:43.651Z,28.58
2022-08-16T12:48:36.135Z,27.52
2022-08-16T12:50:10.532Z,27.02
2022-08-16T12:51:58.599Z,27.37
2022-08-16T12:53:35.177Z,28.08
2022-08-16T12:55:14.371Z,27.79
2022-08-16T12:56:47.219Z,26.81
2022-08-16T12:58:48.788Z,26.87
2022-08-16T13:00:26.546Z,25.04
2022-08-16T13:02:01.358Z,25.97
2022-08-16T13:03:40.065Z,25.58
2022-08-16T13:05:13.138Z,26.23
2022-08-16T13:06:45.870Z,26.01
2022-08-16T13:08:20.989Z,25.95
2022-08-16T13:09:58.632Z,25.89
2022-08-16T13:11:41.451Z,26.12
2022-08-16T13:13:27.285Z,26.42
2022-08-16T13:15:02.780Z,25.44
2022-08-16T13:16:35.644Z,26.51
2022-08-16T13:18:24.227Z,26.58
2022-08-16T13:20:11.193Z,26.26
2022-08-16T13:21:43.779Z,26.49
2022-08-16T13:23:17.031Z,25.75
2022-08-16T13:24:51.310Z,27.19
2022-08-16T13:26:26.394Z,26.88
2022-08-16T13:28:15.035Z,27.15
2022-08-16T13:29:57.432Z,27.59
2022-08-16T13:31:30.502Z,28.13
2022-08-16T13:33:11.348Z,28.92
2022-08-16T13:34:46.417Z,28.94
2022-08-16T13:36:38.939Z,29.71
2022-08-16T13:38:21.604Z,29.37
2022-08-16T13:39:57.750Z,28.33
2022-08-16T13:41:32.184Z,27.35
2022-08-16T13:43:05.021Z,28.83
2022-08-16T13:44:48.746Z,28.42
2022-08-16T13:46:30.598Z,28.30
2022-08-16T13:48:06.028Z,28.35
2022-08-16T13:49:38.504Z,28.80
2022-08-16T13:51:16.852Z,29.02
2022-08-16T13:52:50.026Z,30.67
2022-08-16T13:54:22.407Z,32.63
2022-08-16T13:55:58.568Z,32.38
2022-08-16T13:58:35.518Z,32.81
2022-08-16T13:59:24.197Z,35.97
2022-08-16T14:01:03.751Z,36.66
2022-08-16T14:02:42.875Z,36.99
2022-08-16T14:04:19.053Z,35.36
2022-08-16T14:05:59.098Z,35.44
2022-08-16T14:07:32.237Z,37.46
2022-08-16T14:09:07.498Z,38.20
2022-08-16T14:10:40.018Z,35.80
2022-08-16T14:12:25.260Z,34.14
2022-08-16T14:13:59.600Z,33.20
2022-08-16T14:15:32.327Z,33.52
2022-08-16T14:17:09.686Z,33.25
2022-08-16T14:18:42.486Z,32.99
2022-08-16T14:20:19.431Z,33.42
2022-08-16T14:22:14.862Z,34.59
2022-08-16T14:23:48.065Z,36.29
2022-08-16T14:25:22.085Z,36.94
2022-08-16T14:26:55.102Z,35.14
2022-08-16T14:28:29.225Z,34.58
2022-08-16T14:30:02.636Z,32.88
2022-08-16T14:31:39.331Z,32.18
2022-08-16T14:33:12.390Z,32.43
2022-08-16T14:34:45.038Z,33.00
2022-08-16T14:36:18.820Z,33.30
2022-08-16T14:38:02.177Z,33.54
2022-08-16T14:39:35.844Z,33.36
2022-08-16T14:41:11.955Z,35.11
2022-08-16T14:42:45.232Z,34.94
2022-08-16T14:44:20.682Z,34.17
2022-08-16T14:45:54.820Z,35.60
2022-08-16T14:47:34.228Z,42.23
2022-08-16T14:49:09.262Z,47.93
2022-08-16T14:50:41.363Z,53.37
2022-08-16T14:52:44.334Z,56.27
2022-08-16T14:54:11.228Z,56.03
2022-08-16T14:55:43.713Z,55.91
2022-08-16T14:57:16.299Z,55.04
2022-08-16T14:58:48.704Z,57.79
2022-08-16T15:00:21.776Z,60.90
2022-08-16T15:02:11.904Z,62.66
2022-08-16T15:04:00.845Z,65.46
2022-08-16T15:05:33.570Z,67.25
2022-08-16T15:07:09.336Z,65.92
2022-08-16T15:08:45.818Z,68.28
2022-08-16T15:10:24.090Z,69.29
2022-08-16T15:11:57.086Z,70.86
2022-08-16T15:13:29.778Z,71.00
2022-08-16T15:16:50.070Z,66.11
2022-08-16T15:18:23.408Z,70.72
2022-08-16T15:20:01.326Z,68.60
2022-08-16T15:21:33.798Z,67.20
2022-08-16T15:23:08.843Z,71.16
2022-08-16T15:24:45.314Z,71.00
2022-08-16T15:26:29.599Z,71.52
2022-08-16T15:28:30.946Z,72.52
2022-08-16T15:30:44.709Z,74.88
2022-08-16T15:32:01.119Z,74.34
2022-08-16T15:33:42.724Z,73.76
2022-08-16T15:35:18.548Z,69.85
2022-08-16T15:36:50.776Z,55.37
2022-08-16T15:38:54.866Z,54.23
2022-08-16T15:40:32.081Z,54.82
2022-08-16T15:42:11.205Z,53.46
2022-08-16T15:43:44.023Z,51.01
2022-08-16T15:45:36.331Z,49.62
2022-08-16T15:47:15.102Z,50.31
2022-08-16T15:48:47.961Z,47.57
2022-08-16T15:50:24.123Z,48.36
2022-08-16T15:51:56.577Z,48.95
2022-08-16T15:53:31.369Z,48.92
2022-08-16T15:55:23.636Z,47.46
2022-08-16T15:56:56.775Z,49.61
2022-08-16T15:58:35.021Z,48.86
2022-08-16T16:00:15.280Z,49.45
2022-08-16T16:01:48.237Z,48.55
2022-08-16T16:03:25.611Z,48.34
2022-08-16T16:05:02.285Z,48.77
2022-08-16T16:06:37.626Z,47.33
2022-08-16T16:08:15.089Z,45.64
2022-08-16T16:09:56.699Z,45.24
2022-08-16T16:11:31.331Z,45.87
2022-08-16T16:13:05.902Z,45.50
2022-08-16T16:14:41.420Z,46.09
2022-08-16T16:16:19.424Z,43.68
2022-08-16T16:17:54.036Z,44.62
2022-08-16T16:19:27.177Z,45.08
2022-08-16T16:21:09.352Z,43.02
2022-08-16T16:22:43.808Z,44.69
2022-08-16T16:24:16.910Z,50.49
2022-08-16T16:25:57.328Z,55.15
2022-08-16T16:27:30.081Z,57.08
2022-08-16T16:29:07.369Z,57.89
2022-08-16T16:30:45.381Z,58.23
2022-08-16T16:32:18.305Z,59.06
2022-08-16T16:34:08.263Z,58.49
2022-08-16T16:35:46.954Z,60.46
2022-08-16T16:37:20.323Z,60.85
2022-08-16T16:38:52.785Z,62.62
2022-08-16T16:40:32.829Z,62.89
2022-08-16T16:42:06.215Z,63.17
2022-08-16T16:43:46.876Z,64.15
2022-08-16T16:45:22.931Z,64.75
2022-08-16T16:46:58.215Z,65.28
2022-08-16T16:48:34.728Z,66.19
2022-08-16T16:50:09.589Z,65.77
2022-08-16T16:51:44.886Z,66.11
2022-08-16T16:53:23.165Z,66.78
2022-08-16T16:54:56.217Z,67.71
2022-08-16T16:56:37.410Z,67.46
2022-08-16T16:58:35.411Z,68.97
2022-08-16T17:00:30.089Z,68.46
2022-08-16T17:02:41.656Z,69.52
2022-08-16T17:03:56.881Z,69.93
2022-08-16T17:05:32.710Z,69.75
2022-08-16T17:07:10.537Z,70.36
2022-08-16T17:08:44.064Z,70.57
2022-08-16T17:10:46.737Z,70.98
2022-08-16T17:12:24.410Z,71.46
2022-08-16T17:13:57.934Z,71.68
2022-08-16T17:15:36.411Z,72.33
2022-08-16T17:17:09.567Z,72.22
2022-08-16T17:19:16.453Z,73.07
2022-08-16T17:20:33.973Z,73.06
2022-08-16T17:22:14.872Z,73.02
2022-08-16T17:23:59.167Z,72.76
2022-08-16T17:25:36.431Z,72.93
2022-08-16T17:27:09.446Z,73.31
2022-08-16T17:28:58.629Z,73.97
2022-08-16T17:30:45.181Z,73.79
2022-08-16T17:32:33.550Z,73.46
2022-08-16T17:34:28.859Z,73.56
2022-08-16T17:36:04.000Z,74.13
2022-08-16T17:37:50.608Z,73.81
2022-08-16T17:39:23.948Z,74.45
2022-08-16T17:40:59.439Z,74.94
2022-08-16T17:42:32.075Z,74.92
2022-08-16T17:44:06.071Z,75.48
2022-08-16T17:45:41.750Z,75.60
2022-08-16T17:47:14.152Z,74.64
2022-08-16T17:48:46.234Z,75.59
2022-08-16T17:50:19.757Z,75.21
2022-08-16T17:51:52.954Z,75.60
2022-08-16T17:53:26.293Z,75.70
2022-08-16T17:54:58.616Z,76.21
2022-08-16T17:56:31.091Z,76.66
2022-08-16T17:58:22.722Z,76.90
2022-08-16T17:59:56.321Z,77.12
2022-08-16T18:01:29.362Z,77.54
2022-08-16T18:03:02.873Z,77.41
2022-08-16T18:04:48.609Z,77.17
2022-08-16T18:06:22.837Z,77.58
2022-08-16T18:07:55.655Z,77.76
2022-08-16T18:09:28.290Z,77.62
2022-08-16T18:11:03.106Z,76.91
2022-08-16T18:12:50.797Z,76.92
2022-08-16T18:14:51.969Z,77.19
2022-08-16T18:16:21.406Z,77.22
2022-08-16T18:17:53.982Z,76.75
2022-08-16T18:19:26.493Z,77.22
2022-08-16T18:21:17.308Z,77.49
2022-08-16T18:22:50.073Z,77.91
2022-08-16T18:24:22.587Z,77.71
2022-08-16T18:25:57.708Z,77.04
2022-08-16T18:27:33.148Z,77.17
2022-08-16T18:29:09.811Z,76.44
2022-08-16T18:30:43.192Z,76.40
2022-08-16T18:32:22.003Z,76.65
2022-08-16T18:33:57.547Z,76.59
2022-08-16T18:35:30.005Z,76.35
2022-08-16T18:37:02.487Z,75.94
2022-08-16T18:38:37.695Z,76.20
2022-08-16T18:40:11.346Z,76.04
2022-08-16T18:41:47.509Z,76.10
2022-08-16T18:43:21.758Z,76.02
2022-08-16T18:45:15.287Z,76.39
2022-08-16T18:46:51.074Z,76.75
2022-08-16T18:48:27.841Z,77.54
2022-08-16T18:50:00.971Z,77.64
2022-08-16T18:51:33.839Z,77.73
2022-08-16T18:53:08.879Z,77.23
2022-08-16T18:55:02.851Z,77.05
2022-08-16T18:56:56.051Z,76.99
2022-08-16T18:58:31.122Z,76.76
2022-08-16T19:00:04.162Z,76.94
2022-08-16T19:01:36.635Z,76.69
2022-08-16T19:03:13.198Z,76.26
2022-08-16T19:04:56.650Z,76.94
2022-08-16T19:06:30.721Z,77.35
2022-08-16T19:08:05.198Z,77.07
2022-08-16T19:09:38.565Z,75.89
2022-08-16T19:11:14.325Z,75.60
2022-08-16T19:12:47.317Z,75.74
2022-08-16T19:14:20.001Z,76.04
2022-08-16T19:15:57.841Z,76.38
2022-08-16T19:17:30.559Z,76.45
2022-08-16T19:19:02.959Z,76.27
2022-08-16T19:20:36.079Z,76.93
2022-08-16T19:22:08.879Z,77.26
2022-08-16T19:23:43.524Z,77.33
2022-08-16T19:25:21.282Z,77.13
2022-08-16T19:27:14.560Z,77.75
2022-08-16T19:28:58.815Z,77.48
2022-08-16T19:30:32.313Z,76.89
2022-08-16T19:32:05.202Z,76.87
2022-08-16T19:33:37.839Z,77.37
2022-08-16T19:35:11.198Z,78.65
2022-08-16T19:36:43.681Z,77.91
2022-08-16T19:38:17.281Z,78.40
2022-08-16T19:39:49.924Z,78.66
2022-08-16T19:41:22.507Z,78.77
2022-08-16T19:42:54.962Z,78.63
2022-08-16T19:44:28.963Z,79.31
2022-08-16T19:46:01.524Z,78.93
2022-08-16T19:47:34.243Z,79.07
2022-08-16T19:49:07.030Z,78.46
2022-08-16T19:50:39.442Z,78.31
2022-08-16T19:52:15.041Z,78.54
2022-08-16T19:53:47.447Z,79.20
2022-08-16T19:55:22.589Z,79.04
2022-08-16T19:56:57.842Z,79.63
2022-08-16T19:58:31.359Z,79.11
2022-08-16T20:00:12.642Z,79.19
2022-08-16T20:01:46.801Z,79.36
2022-08-16T20:03:21.310Z,78.90
2022-08-16T20:04:54.718Z,78.84
2022-08-16T20:06:38.441Z,79.00
2022-08-16T20:08:11.922Z,79.09
2022-08-16T20:09:44.558Z,78.56
2022-08-16T20:11:17.407Z,78.01
2022-08-16T20:12:59.785Z,78.39
2022-08-16T20:14:34.564Z,79.28
2022-08-16T20:16:06.963Z,79.66
2022-08-16T20:17:39.236Z,79.43
2022-08-16T20:19:11.491Z,79.97
2022-08-16T20:20:44.072Z,80.33
2022-08-16T20:22:52.550Z,80.09
2022-08-16T20:24:34.262Z,79.96
2022-08-16T20:26:08.081Z,79.84
2022-08-16T20:27:44.561Z,79.91
2022-08-16T20:29:16.641Z,79.40
2022-08-16T20:30:48.726Z,79.63
2022-08-16T20:32:25.786Z,79.39
2022-08-16T20:34:08.479Z,78.62
2022-08-16T20:35:43.118Z,78.94
2022-08-16T20:37:16.961Z,79.83
2022-08-16T20:38:50.559Z,79.53
2022-08-16T20:40:35.353Z,79.41
2022-08-16T20:42:08.203Z,79.22
2022-08-16T20:43:40.402Z,79.68
2022-08-16T20:45:12.676Z,80.00
2022-08-16T20:46:44.801Z,80.49
2022-08-16T20:48:16.964Z,80.22
2022-08-16T20:49:50.164Z,79.87
2022-08-16T20:51:22.489Z,79.69
2022-08-16T20:52:54.809Z,79.83
2022-08-16T20:54:29.596Z,80.09
2022-08-16T20:56:03.163Z,80.09
2022-08-16T20:57:38.342Z,79.95
2022-08-16T20:59:10.458Z,80.17
2022-08-16T21:00:42.954Z,79.87
2022-08-16T21:02:18.847Z,79.85
2022-08-16T21:03:51.578Z,79.46
2022-08-16T21:05:27.885Z,79.41
2022-08-16T21:07:08.431Z,79.21
2022-08-16T21:08:53.478Z,79.84
2022-08-16T21:10:27.787Z,79.95
2022-08-16T21:12:10.269Z,80.40
2022-08-16T21:13:47.099Z,80.08
2022-08-16T21:15:21.550Z,80.08
2022-08-16T21:16:58.636Z,80.41